Terminal Aerodrome Forecast
Issued by NWS

Home | Current Version | Previous Version | Text Only | Print | Product List | Glossary On
Versions: 1 2 3 4 5 6 7 8 9 10 11 12 13 14 15 16
561
FTUS43 KLSX 220840 AAA
TAFUIN
TAF AMD
KUIN 220840Z 2209/2306 07015G25KT P6SM VCTS SCT010 OVC030CB
      TEMPO 2209/2211 VRB35KT 3SM TSRA OVC015CB
     FM221200 20008KT P6SM FEW050 BKN250=

USA.gov is the U.S. government's official web portal to all federal, state and local government web resources and services.